Portada
METAR-TAF:

METAR-TAF

Aeroports :

Dammam, Aràbia Saudita

latitud: 26-28N, longitud: 049-47E, altitud: 22 m

Observació

L'informe es va fer fa 54 minuts, a les 04:00 UTC
Vent 8 kt del Oest
Temperatura 32°C
Humitat 26%
Pressió 1002 hPa
Visibilitat: 8000 m

METAR: OEDF 220400Z 27008KT 8000 NSC 32/10 Q1002 NOSIG

Hora: 07:54 (04:54 UTC)

Pronòstic

L'informe es va fer fa 7 hores i 54 minuts, a les 21:00 UTC
Pronòstic vàlid del 22 a les 00 UTC al 23 a les 06 UTC
Vent 4 kt amb direcció variable
Visibilitat: 8000 m
Evolucionant progressivament
l' 22 a les 08 UTC al 22 a les 10 UTC
Vent 12 kt del Est
Evolucionant progressivament
l' 22 a les 18 UTC al 22 a les 20 UTC
Vent 3 kt amb direcció variable
Visibilitat: 6000 m

TAF: OEDF 212100Z 2200/2306 VRB04KT 8000 NSC BECMG 2208/2210 09012KT BECMG 2218/2220 VRB03KT 6000

Observacions i pronòstics meteorològics de més de 4000 aeroports (METAR i TAF).

Les estacions disponibles són els punts grocs i vermells al mapa.

Posi el ratolí al punt desitjat per veure el nom de l'estació.

Feu clic per veure les observacions i els pronòstics meteorològics.

Per canviar el mapa: feu clic els botons verds amb una creu de color negre per apropar; al botó verd amb un guió per allunyar la imatge; o en les fletxes verdes per a mapes adjacents.


METAR-TAF: